Terminal Aerodrome Forecast
Issued by NWS

Home | Current Version | Previous Version | Text Only | Print | Product List | Glossary On
Versions: 1 2 3 4 5 6 7 8 9 10 11 12 13 14
000
FTUS45 KRIW 181700
TAFCPR
TAF
KCPR 181720Z 1818/1918 22011KT P6SM FEW200
     FM182200 25007KT P6SM FEW200
     FM190100 VRB05KT P6SM SKC=

USA.gov is the U.S. government's official web portal to all federal, state and local government web resources and services.